Time;durP1;ratioP1;P1;durP2;ratioP2;P2;SDS_P1;SDS_P2;PMS_P1;PMS_P2;Temp;Humidity;BMP_temperature;BMP_pressure;BME280_temperature;BME280_humidity;BME280_pressure;Samples;Min_cycle;Max_cycle;Signal;HPM_P1;HPM_P2
2022/06/16 00:00:31;;;;;;;4.30;3.30;;;17.50;62.90;;;;;;2375119;56;21064;-76
2022/06/16 00:02:59;;;;;;;4.03;2.90;;;17.50;63.00;;;;;;2375709;56;21028;-77
2022/06/16 00:05:29;;;;;;;6.28;3.50;;;17.50;63.00;;;;;;2374929;56;21049;-77
2022/06/16 00:07:57;;;;;;;4.50;3.55;;;17.50;63.10;;;;;;2376218;56;21119;-76
2022/06/16 00:10:24;;;;;;;6.12;3.25;;;17.60;63.10;;;;;;2376002;56;21056;-76
2022/06/16 00:12:52;;;;;;;5.07;3.20;;;17.50;62.90;;;;;;2376161;56;22130;-78
2022/06/16 00:15:23;;;;;;;5.22;3.15;;;17.60;62.90;;;;;;2375207;56;21076;-75
2022/06/16 00:17:51;;;;;;;3.72;2.67;;;17.50;62.80;;;;;;2375714;56;21048;-74
2022/06/16 00:20:18;;;;;;;5.47;3.05;;;17.50;62.80;;;;;;2376171;56;21045;-77
2022/06/16 00:22:47;;;;;;;4.82;3.12;;;17.50;62.90;;;;;;2630008;52;21109;-77
2022/06/16 00:25:15;;;;;;;4.12;3.10;;;17.50;62.80;;;;;;2375486;56;21139;-75
2022/06/16 00:27:44;;;;;;;7.45;3.12;;;17.50;62.70;;;;;;2376447;56;21111;-77
2022/06/16 00:30:13;;;;;;;7.78;3.53;;;17.50;62.60;;;;;;2375015;56;22160;-77
2022/06/16 00:32:42;;;;;;;7.53;3.25;;;17.50;62.40;;;;;;2375261;56;21032;-77
2022/06/16 00:35:11;;;;;;;6.80;3.70;;;17.50;62.40;;;;;;2374790;56;21037;-75
2022/06/16 00:37:39;;;;;;;5.25;2.60;;;17.40;62.50;;;;;;2375253;56;21092;-77
2022/06/16 00:40:10;;;;;;;5.68;3.25;;;17.40;62.60;;;;;;2374899;56;21122;-77
2022/06/16 00:42:38;;;;;;;6.18;2.90;;;17.40;62.60;;;;;;2375319;56;21144;-77
2022/06/16 00:45:46;;;;;;;5.55;2.55;;;17.40;62.40;;;;;;2375003;56;21040;-77
2022/06/16 00:48:19;;;;;;;4.43;2.60;;;17.40;62.60;;;;;;2375895;56;21053;-77
2022/06/16 00:50:49;;;;;;;5.53;2.70;;;17.40;62.10;;;;;;2375987;56;22280;-77
2022/06/16 00:53:17;;;;;;;6.45;2.87;;;17.40;63.10;;;;;;2375020;56;21044;-77
2022/06/16 00:55:45;;;;;;;4.95;2.60;;;17.30;62.30;;;;;;2374291;56;21099;-75
2022/06/16 00:58:13;;;;;;;5.65;2.87;;;17.30;62.40;;;;;;2628547;52;21103;-77
2022/06/16 01:00:45;;;;;;;4.80;2.50;;;17.30;62.30;;;;;;2374813;56;21535;-77
2022/06/16 01:03:14;;;;;;;3.85;2.25;;;17.30;62.20;;;;;;2373568;56;21123;-77
2022/06/16 01:07:23;;;;;;;5.40;2.40;;;17.30;62.20;;;;;;2374102;56;21186;-77
2022/06/16 01:09:52;;;;;;;8.85;2.58;;;17.30;61.80;;;;;;2373909;56;21578;-77
2022/06/16 01:15:38;;;;;;;5.32;2.62;;;17.30;62.00;;;;;;2374123;56;20989;-77
2022/06/16 01:18:15;;;;;;;4.78;2.53;;;17.20;61.90;;;;;;2374278;56;21093;-78
2022/06/16 01:20:48;;;;;;;7.28;3.30;;;17.20;62.20;;;;;;2373426;56;21623;-76
2022/06/16 01:23:38;;;;;;;6.43;2.67;;;17.10;62.20;;;;;;2373632;56;21071;-77
2022/06/16 01:26:21;;;;;;;7.25;2.80;;;17.00;62.50;;;;;;2374546;56;21210;-77
2022/06/16 01:29:09;;;;;;;5.35;3.15;;;17.00;62.90;;;;;;2373675;56;21123;-77
2022/06/16 01:31:44;;;;;;;4.18;2.50;;;17.00;63.20;;;;;;2374805;56;21048;-77
2022/06/16 01:34:18;;;;;;;5.32;2.37;;;17.00;62.60;;;;;;2374346;56;21286;-77
2022/06/16 01:36:52;;;;;;;5.65;3.90;;;17.00;63.10;;;;;;2374333;56;21610;-76
2022/06/16 01:39:26;;;;;;;5.03;2.62;;;16.90;63.10;;;;;;2372642;56;21311;-75
2022/06/16 01:41:58;;;;;;;6.55;2.42;;;16.90;63.20;;;;;;2374863;56;21820;-76
2022/06/16 01:44:32;;;;;;;4.28;2.83;;;16.90;63.30;;;;;;2626279;52;21056;-77
2022/06/16 01:47:07;;;;;;;4.75;2.60;;;16.80;63.50;;;;;;2374040;56;22179;-77
2022/06/16 01:49:39;;;;;;;3.22;2.60;;;16.80;63.50;;;;;;2374145;56;21060;-77
2022/06/16 01:52:12;;;;;;;4.35;2.28;;;16.80;63.60;;;;;;2373140;56;21087;-77
2022/06/16 01:54:42;;;;;;;3.12;2.10;;;16.80;63.80;;;;;;2374251;56;21052;-77
2022/06/16 01:57:15;;;;;;;5.18;2.25;;;16.80;64.00;;;;;;2374350;56;21048;-77
2022/06/16 01:59:43;;;;;;;;;;;16.70;64.10;;;;;;2378444;56;21052;-76
2022/06/16 02:02:14;;;;;;;4.82;2.70;;;16.90;64.00;;;;;;2373900;56;20065;-77
2022/06/16 02:04:48;;;;;;;3.65;2.25;;;16.80;63.60;;;;;;2374358;56;21136;-77
2022/06/16 02:07:22;;;;;;;6.93;2.60;;;16.70;63.80;;;;;;2373199;56;21123;-76
2022/06/16 02:09:54;;;;;;;5.82;2.75;;;16.70;64.10;;;;;;2374243;56;21143;-75
2022/06/16 02:15:20;;;;;;;3.75;2.50;;;16.60;64.30;;;;;;2373780;56;21052;-77
2022/06/16 02:17:48;;;;;;;4.00;2.40;;;16.60;64.20;;;;;;2374970;56;21041;-77
2022/06/16 02:20:16;;;;;;;4.50;3.08;;;16.50;64.20;;;;;;2372223;56;21596;-75
2022/06/16 02:22:43;;;;;;;7.95;2.65;;;16.50;64.50;;;;;;2372126;56;21108;-75
2022/06/16 02:25:11;;;;;;;5.60;2.30;;;16.50;64.60;;;;;;2372916;56;21045;-77
2022/06/16 02:27:38;;;;;;;5.47;2.78;;;16.50;64.80;;;;;;2373844;56;21976;-77
2022/06/16 02:30:09;;;;;;;4.20;2.78;;;16.50;64.60;;;;;;2374669;56;21056;-77
2022/06/16 02:32:48;;;;;;;4.47;2.30;;;16.50;64.70;;;;;;2375083;56;21100;-77
2022/06/16 02:35:27;;;;;;;3.80;2.55;;;16.40;64.80;;;;;;2373909;56;21104;-76
2022/06/16 02:38:08;;;;;;;3.00;2.45;;;16.40;64.90;;;;;;2374938;56;21155;-77
2022/06/16 02:43:48;;;;;;;6.43;2.62;;;16.40;65.10;;;;;;2355233;57;22136;-76
2022/06/16 02:46:27;;;;;;;9.43;2.97;;;16.40;65.10;;;;;;2342471;57;21395;-76
2022/06/16 02:49:07;;;;;;;4.28;3.00;;;16.40;64.90;;;;;;2357741;56;21118;-75
2022/06/16 02:51:41;;;;;;;4.93;2.70;;;16.40;64.70;;;;;;2374484;56;21624;-76
2022/06/16 02:54:12;;;;;;;;;;;16.30;64.60;;;;;;2378019;56;21058;-76
2022/06/16 02:56:48;;;;;;;6.28;2.65;;;16.50;64.70;;;;;;2628114;52;20065;-75
2022/06/16 02:59:19;;;;;;;4.78;3.00;;;16.40;64.30;;;;;;2372737;56;21038;-77
2022/06/16 03:01:48;;;;;;;8.45;3.78;;;16.30;64.90;;;;;;2374711;56;21063;-77
2022/06/16 03:04:18;;;;;;;4.50;2.92;;;16.30;65.30;;;;;;2374844;56;21038;-77
2022/06/16 03:06:46;;;;;;;4.70;3.58;;;16.20;65.70;;;;;;2374952;56;21684;-77
2022/06/16 03:09:15;;;;;;;7.57;2.67;;;16.10;66.10;;;;;;2374584;56;21043;-76
2022/06/16 03:11:42;;;;;;;4.55;2.90;;;16.10;66.40;;;;;;2375275;56;21051;-77
2022/06/16 03:14:10;;;;;;;3.15;2.85;;;16.10;66.60;;;;;;2373716;56;21548;-76
2022/06/16 03:16:38;;;;;;;3.22;2.65;;;16.00;66.70;;;;;;2374741;56;21383;-77
2022/06/16 03:19:06;;;;;;;5.75;3.80;;;16.10;67.00;;;;;;2627991;52;21067;-75
2022/06/16 03:21:33;;;;;;;5.85;3.53;;;16.00;66.70;;;;;;2374239;56;21035;-76
2022/06/16 03:24:01;;;;;;;7.07;3.08;;;16.10;66.70;;;;;;2374624;56;21186;-76
2022/06/16 03:26:28;;;;;;;6.15;3.50;;;16.10;66.80;;;;;;2373780;56;21122;-74
2022/06/16 03:28:56;;;;;;;5.82;3.00;;;16.10;66.90;;;;;;2375074;56;21083;-77
2022/06/16 03:31:23;;;;;;;4.32;2.92;;;16.10;67.00;;;;;;2374070;56;21039;-76
2022/06/16 03:33:51;;;;;;;4.75;3.15;;;16.10;66.80;;;;;;2374355;56;21141;-74
2022/06/16 03:36:19;;;;;;;5.22;3.10;;;16.10;66.70;;;;;;2374253;56;21037;-77
2022/06/16 03:38:47;;;;;;;10.60;3.80;;;16.10;66.70;;;;;;2374580;56;21039;-74
2022/06/16 03:41:15;;;;;;;6.78;3.72;;;16.10;66.70;;;;;;2374774;56;21071;-76
2022/06/16 03:43:42;;;;;;;6.03;3.72;;;16.20;66.80;;;;;;2374366;56;21039;-77
2022/06/16 03:46:11;;;;;;;6.10;3.65;;;16.20;66.80;;;;;;2373858;56;21035;-77
2022/06/16 03:48:39;;;;;;;5.57;3.90;;;16.20;66.80;;;;;;2443979;54;21122;-72
2022/06/16 03:51:08;;;;;;;5.62;3.33;;;16.20;66.80;;;;;;2300639;58;21525;-74
2022/06/16 03:53:36;;;;;;;5.00;2.85;;;16.20;66.90;;;;;;2300283;58;21122;-74
2022/06/16 03:56:05;;;;;;;4.82;3.17;;;16.30;67.10;;;;;;2299029;58;21381;-74
2022/06/16 03:58:32;;;;;;;6.95;3.00;;;16.30;67.20;;;;;;2299596;58;21822;-74
2022/06/16 04:01:00;;;;;;;4.00;3.17;;;16.30;67.10;;;;;;2299457;58;21648;-75
2022/06/16 04:06:14;;;;;;;6.32;3.45;;;16.30;67.00;;;;;;2299187;58;21062;-74
2022/06/16 04:08:42;;;;;;;6.32;3.60;;;16.30;67.00;;;;;;2300460;58;21074;-74
2022/06/16 04:11:27;;;;;;;7.18;3.83;;;16.30;67.40;;;;;;2299899;58;21063;-75
2022/06/16 04:13:57;;;;;;;5.65;2.90;;;16.40;67.30;;;;;;2536545;54;21071;-73
2022/06/16 04:16:24;;;;;;;5.28;3.37;;;16.50;67.30;;;;;;2297904;58;22175;-76
2022/06/16 04:18:52;;;;;;;8.82;4.05;;;16.50;67.20;;;;;;2299478;58;21129;-75
2022/06/16 04:21:19;;;;;;;5.70;3.40;;;16.50;67.40;;;;;;2299062;58;21131;-75
2022/06/16 04:23:47;;;;;;;4.80;3.05;;;16.50;67.30;;;;;;2300250;58;21595;-74
2022/06/16 04:26:14;;;;;;;6.82;3.58;;;16.60;67.40;;;;;;2298300;58;21078;-75
2022/06/16 04:28:42;;;;;;;8.02;3.22;;;16.60;68.10;;;;;;2299850;58;21145;-75
2022/06/16 04:31:09;;;;;;;5.85;3.42;;;16.60;67.30;;;;;;2300318;58;21656;-75
2022/06/16 04:33:37;;;;;;;5.37;3.55;;;16.60;67.30;;;;;;2535962;54;21074;-74
2022/06/16 04:38:40;;;;;;;6.75;4.10;;;16.60;67.70;;;;;;2325402;57;27843;-76
2022/06/16 04:41:08;;;;;;;4.97;2.72;;;16.40;70.10;;;;;;2591823;53;21049;-75
2022/06/16 04:43:36;;;;;;;5.10;2.95;;;16.60;69.60;;;;;;2345970;57;21583;-76
2022/06/16 04:46:05;;;;;;;4.50;3.22;;;16.70;68.80;;;;;;2345577;57;21627;-76
2022/06/16 04:48:33;;;;;;;5.95;3.50;;;16.70;68.50;;;;;;2345847;57;21058;-75
2022/06/16 04:51:02;;;;;;;4.78;2.92;;;16.70;68.40;;;;;;2343216;57;21547;-75
2022/06/16 04:53:31;;;;;;;7.97;3.08;;;16.70;68.40;;;;;;2344649;57;21042;-76
2022/06/16 04:56:01;;;;;;;4.47;2.60;;;16.80;68.30;;;;;;2343883;57;21074;-76
2022/06/16 04:58:30;;;;;;;5.07;3.05;;;16.80;68.50;;;;;;2344862;57;21116;-76
2022/06/16 05:00:58;;;;;;;7.35;3.72;;;16.80;68.30;;;;;;2345810;57;21073;-75
2022/06/16 05:03:27;;;;;;;5.15;3.33;;;16.80;68.40;;;;;;2346358;57;21172;-76
2022/06/16 05:05:57;;;;;;;7.05;3.03;;;16.90;68.50;;;;;;2592031;53;21026;-75
2022/06/16 05:08:24;;;;;;;5.00;3.03;;;16.90;68.40;;;;;;2344667;57;21085;-76
2022/06/16 05:10:52;;;;;;;4.93;3.10;;;16.90;68.50;;;;;;2344557;57;21505;-75
2022/06/16 05:13:20;;;;;;;5.68;3.78;;;16.90;68.50;;;;;;2345363;57;21105;-76
2022/06/16 05:15:48;;;;;;;6.80;3.30;;;16.90;68.50;;;;;;2345896;57;21104;-76
2022/06/16 05:18:15;;;;;;;6.15;3.35;;;16.90;68.60;;;;;;2345117;57;21082;-75
2022/06/16 05:20:43;;;;;;;4.87;2.92;;;16.90;68.70;;;;;;2345579;57;21117;-75
2022/06/16 05:23:11;;;;;;;6.07;3.83;;;16.90;68.90;;;;;;2344442;57;21022;-76
2022/06/16 05:25:41;;;;;;;7.97;3.17;;;16.90;69.00;;;;;;2590155;52;21518;-76
2022/06/16 05:28:10;;;;;;;11.75;4.22;;;16.90;69.00;;;;;;2344969;57;21682;-75
2022/06/16 05:30:37;;;;;;;4.93;2.80;;;16.90;68.90;;;;;;2345372;57;21061;-76
2022/06/16 05:33:06;;;;;;;7.70;3.00;;;17.00;69.00;;;;;;2344603;57;21042;-75
2022/06/16 05:35:33;;;;;;;7.70;3.37;;;17.10;68.70;;;;;;2344762;57;21108;-76
2022/06/16 05:38:01;;;;;;;7.45;2.85;;;17.10;68.90;;;;;;2591803;52;21330;-76
2022/06/16 05:40:28;;;;;;;7.50;3.22;;;17.10;68.80;;;;;;2593708;53;21324;-75
2022/06/16 05:42:56;;;;;;;5.12;3.62;;;17.20;68.90;;;;;;2594051;53;21026;-76
2022/06/16 05:45:24;;;;;;;5.65;3.83;;;17.20;68.50;;;;;;2347111;57;21048;-75
2022/06/16 05:47:53;;;;;;;4.90;3.35;;;17.20;68.60;;;;;;2347493;57;21038;-76
2022/06/16 05:50:22;;;;;;;4.32;3.15;;;17.20;68.70;;;;;;2346146;57;21045;-76
2022/06/16 05:52:50;;;;;;;8.05;3.47;;;17.20;68.90;;;;;;2345498;57;21113;-75
2022/06/16 05:55:18;;;;;;;9.60;3.05;;;17.20;69.10;;;;;;2346720;57;21058;-75
2022/06/16 06:00:21;;;;;;;7.80;3.70;;;17.10;69.30;;;;;;2283067;58;28621;-75
2022/06/16 06:02:51;;;;;;;8.10;3.30;;;17.00;71.40;;;;;;2320236;58;21297;-75
2022/06/16 06:05:19;;;;;;;8.30;3.50;;;17.20;70.70;;;;;;2320740;58;21116;-76
2022/06/16 06:16:26;;;;;;;5.72;3.67;;;17.20;69.70;;;;;;2319197;58;20992;-76
2022/06/16 06:18:54;;;;;;;10.70;3.55;;;17.10;70.20;;;;;;2319855;58;21566;-76
2022/06/16 06:24:10;;;;;;;6.68;3.80;;;16.90;70.80;;;;;;2561446;53;22198;-76
2022/06/16 06:26:38;;;;;;;5.32;3.62;;;16.90;71.20;;;;;;2317985;58;21681;-75
2022/06/16 06:29:06;;;;;;;9.98;3.95;;;16.80;71.50;;;;;;2320163;58;21609;-75
2022/06/16 06:31:34;;;;;;;8.05;3.45;;;16.80;71.80;;;;;;2320102;58;21065;-75
2022/06/16 06:34:01;;;;;;;8.45;3.95;;;16.80;72.10;;;;;;2561791;53;21119;-75
2022/06/16 06:36:29;;;;;;;8.80;3.22;;;16.80;72.30;;;;;;2319232;58;21040;-76
2022/06/16 06:38:56;;;;;;;8.82;4.32;;;16.80;72.40;;;;;;2319634;58;21112;-75
2022/06/16 06:41:24;;;;;;;8.45;4.20;;;16.80;72.70;;;;;;2561632;53;21040;-76
2022/06/16 06:43:51;;;;;;;8.57;3.78;;;16.80;72.70;;;;;;2319944;58;21059;-75
2022/06/16 06:46:19;;;;;;;7.47;3.95;;;16.80;72.90;;;;;;2319990;58;21132;-75
2022/06/16 06:48:46;;;;;;;10.20;3.80;;;16.80;72.80;;;;;;2319673;58;21040;-76
2022/06/16 06:51:14;;;;;;;7.28;3.45;;;16.90;72.80;;;;;;2320425;58;21064;-76
2022/06/16 06:53:41;;;;;;;7.47;3.55;;;16.80;72.70;;;;;;2320093;58;21126;-75
2022/06/16 06:56:12;;;;;;;7.28;3.65;;;16.80;72.70;;;;;;2319822;58;21641;-74
2022/06/16 06:58:40;;;;;;;6.70;3.33;;;16.80;73.10;;;;;;2319514;58;21187;-75
2022/06/16 07:01:07;;;;;;;3.67;2.50;;;16.80;73.20;;;;;;2320361;58;21075;-74
2022/06/16 07:03:35;;;;;;;9.70;3.60;;;16.80;73.20;;;;;;2561688;53;21059;-75
2022/06/16 07:06:03;;;;;;;3.47;2.47;;;16.80;72.30;;;;;;2560811;53;21543;-76
2022/06/16 07:08:33;;;;;;;6.78;2.97;;;16.90;72.30;;;;;;2561791;53;21111;-76
2022/06/16 07:11:01;;;;;;;4.72;2.70;;;16.90;71.80;;;;;;2560530;54;21032;-76
2022/06/16 07:13:29;;;;;;;5.65;2.67;;;17.00;71.50;;;;;;2318778;58;21615;-76
2022/06/16 07:15:57;;;;;;;7.55;3.00;;;17.00;71.90;;;;;;2560042;53;21059;-75
2022/06/16 07:18:25;;;;;;;6.95;2.85;;;17.10;71.30;;;;;;2560152;53;21187;-75
2022/06/16 07:20:52;;;;;;;4.47;2.30;;;17.10;70.50;;;;;;2319506;58;21171;-76
2022/06/16 07:23:20;;;;;;;2.45;2.00;;;17.10;70.00;;;;;;2318967;58;21526;-78
2022/06/16 07:25:50;;;;;;;4.25;2.30;;;17.20;70.00;;;;;;2319046;58;21040;-75
2022/06/16 07:28:18;;;;;;;6.35;2.35;;;17.20;69.90;;;;;;2319090;58;21065;-75
2022/06/16 07:30:45;;;;;;;4.65;2.22;;;17.20;69.40;;;;;;2319378;58;21091;-75
2022/06/16 07:33:13;;;;;;;8.45;2.28;;;17.30;68.20;;;;;;2319111;58;21060;-75
2022/06/16 07:35:43;;;;;;;6.28;2.05;;;17.40;68.30;;;;;;2560125;53;21538;-75
2022/06/16 07:38:12;;;;;;;4.93;1.80;;;17.50;67.50;;;;;;2319549;58;21628;-75
2022/06/16 07:40:40;;;;;;;3.95;1.70;;;17.50;66.80;;;;;;2319428;58;21036;-76
2022/06/16 07:45:43;;;;;;;4.72;1.70;;;17.60;66.80;;;;;;2335828;57;27735;-75
2022/06/16 07:48:11;;;;;;;3.17;1.80;;;17.90;65.00;;;;;;2349727;56;21140;-75
2022/06/16 07:50:38;;;;;;;3.50;1.67;;;17.90;64.50;;;;;;2375435;56;21039;-75
2022/06/16 07:53:07;;;;;;;2.72;1.70;;;18.10;64.20;;;;;;2628115;52;21090;-75
2022/06/16 07:55:35;;;;;;;2.55;1.62;;;18.20;63.50;;;;;;2628463;52;21355;-75
2022/06/16 07:58:02;;;;;;;3.45;1.52;;;18.30;62.70;;;;;;2628952;52;21070;-75
2022/06/16 08:00:35;;;;;;;5.85;1.55;;;18.30;61.60;;;;;;2628499;52;21060;-75
2022/06/16 08:03:03;;;;;;;3.08;1.67;;;18.40;61.90;;;;;;2375334;56;21055;-75
2022/06/16 08:05:31;;;;;;;3.70;1.60;;;18.50;61.10;;;;;;2628239;52;21102;-75
2022/06/16 08:07:58;;;;;;;2.20;1.48;;;18.60;61.20;;;;;;2375185;56;21034;-75
2022/06/16 08:10:29;;;;;;;3.25;1.60;;;18.60;60.10;;;;;;2375044;56;21055;-75
2022/06/16 08:12:57;;;;;;;2.92;1.42;;;18.70;59.60;;;;;;2374961;56;21103;-75
2022/06/16 08:15:24;;;;;;;2.45;1.45;;;18.70;59.40;;;;;;2627872;52;21114;-75
2022/06/16 08:17:55;;;;;;;4.28;1.40;;;18.80;59.30;;;;;;2375926;56;21126;-76
2022/06/16 08:20:24;;;;;;;4.45;1.20;;;18.80;59.20;;;;;;2376393;56;21546;-78
2022/06/16 08:22:52;;;;;;;4.82;1.92;;;18.80;59.10;;;;;;2629876;52;21063;-78
2022/06/16 08:25:20;;;;;;;3.65;1.27;;;18.80;59.00;;;;;;2375505;56;21051;-77
2022/06/16 08:27:49;;;;;;;3.37;1.30;;;18.80;59.00;;;;;;2375310;56;21122;-75
2022/06/16 08:30:19;;;;;;;3.08;1.20;;;18.80;58.30;;;;;;2374940;56;21620;-76
2022/06/16 08:32:46;;;;;;;3.45;1.60;;;18.90;57.80;;;;;;2375480;56;21063;-75
2022/06/16 08:35:14;;;;;;;2.97;1.30;;;18.90;56.90;;;;;;2374234;56;22423;-74
2022/06/16 08:37:41;;;;;;;4.50;1.73;;;19.00;57.20;;;;;;2375165;56;21062;-75
2022/06/16 08:40:12;;;;;;;3.33;1.87;;;18.90;57.10;;;;;;2375023;56;21097;-76
2022/06/16 08:42:50;;;;;;;4.47;1.50;;;18.90;56.70;;;;;;2375211;56;21054;-76
2022/06/16 08:45:26;;;;;;;4.05;1.27;;;18.90;56.40;;;;;;2374638;56;21146;-74
2022/06/16 08:48:03;;;;;;;3.47;1.40;;;18.80;56.90;;;;;;2375052;56;21121;-75
2022/06/16 08:50:38;;;;;;;2.08;1.23;;;18.90;57.00;;;;;;2374349;56;21628;-75
2022/06/16 08:53:18;;;;;;;2.17;1.50;;;18.90;56.90;;;;;;2374920;56;21042;-75
2022/06/16 08:55:54;;;;;;;3.00;1.27;;;18.90;56.70;;;;;;2374470;56;21545;-75
2022/06/16 08:58:32;;;;;;;2.33;1.00;;;18.90;56.60;;;;;;2374286;56;21055;-75
2022/06/16 09:01:07;;;;;;;3.22;1.35;;;19.00;56.90;;;;;;2373823;56;21023;-75
2022/06/16 09:03:44;;;;;;;3.25;1.45;;;18.90;56.70;;;;;;2374117;56;21027;-75
2022/06/16 09:06:25;;;;;;;2.15;1.23;;;19.00;56.50;;;;;;2624587;52;21047;-75
2022/06/16 09:09:02;;;;;;;4.28;1.02;;;19.00;56.20;;;;;;2374019;56;21071;-75
2022/06/16 09:11:35;;;;;;;1.77;0.88;;;19.10;55.60;;;;;;2373991;56;21114;-75
2022/06/16 09:15:10;;;;;;;2.53;1.10;;;19.10;53.50;;;;;;2374215;56;21035;-75
2022/06/16 09:17:41;;;;;;;;;;;19.10;52.80;;;;;;2630708;52;21102;-75
2022/06/16 09:20:16;;;;;;;1.17;0.60;;;19.10;51.80;;;;;;2374224;56;20069;-75
2022/06/16 09:23:05;;;;;;;2.50;1.23;;;19.00;50.60;;;;;;2625584;52;21407;-75
2022/06/16 09:25:51;;;;;;;1.45;0.93;;;18.90;50.80;;;;;;2373854;56;21062;-75
2022/06/16 09:28:23;;;;;;;2.28;0.82;;;19.00;50.90;;;;;;2373818;56;21050;-75
2022/06/16 09:30:52;;;;;;;1.60;0.70;;;19.00;50.90;;;;;;2374340;56;21079;-75
2022/06/16 09:33:23;;;;;;;1.15;0.88;;;19.00;51.30;;;;;;2372404;56;21047;-75
2022/06/16 09:35:57;;;;;;;6.18;1.02;;;19.00;51.10;;;;;;2373895;56;21043;-76
2022/06/16 09:38:32;;;;;;;2.65;1.12;;;19.00;51.40;;;;;;2373059;56;21094;-75
2022/06/16 09:42:32;;;;;;;2.47;1.02;;;19.00;51.50;;;;;;2373886;56;21051;-75
2022/06/16 09:45:04;;;;;;;3.10;1.08;;;19.10;51.80;;;;;;2626114;52;21394;-74
2022/06/16 09:47:39;;;;;;;2.00;0.88;;;19.20;51.50;;;;;;2371866;56;21118;-75
2022/06/16 09:50:13;;;;;;;5.85;1.10;;;19.10;50.90;;;;;;2372605;56;21105;-75
2022/06/16 09:52:49;;;;;;;1.75;1.00;;;19.20;50.80;;;;;;2374088;56;21059;-75
2022/06/16 09:55:23;;;;;;;5.70;1.42;;;19.20;51.20;;;;;;2373733;56;21117;-75
2022/06/16 09:57:55;;;;;;;2.72;1.02;;;19.30;51.20;;;;;;2374173;56;21102;-75
2022/06/16 10:00:25;;;;;;;3.75;1.35;;;19.30;51.60;;;;;;2372860;56;21131;-74
2022/06/16 10:02:56;;;;;;;1.67;1.00;;;19.30;51.30;;;;;;2374012;56;21055;-75
2022/06/16 10:05:37;;;;;;;2.28;0.80;;;19.30;51.10;;;;;;2374046;56;21055;-75
2022/06/16 10:08:11;;;;;;;3.83;1.20;;;19.40;51.40;;;;;;2627910;52;21039;-74
2022/06/16 10:10:44;;;;;;;5.15;1.12;;;19.40;50.50;;;;;;2374191;56;21046;-75
2022/06/16 10:13:25;;;;;;;4.78;1.58;;;19.40;50.20;;;;;;2374400;56;21067;-75
2022/06/16 10:15:58;;;;;;;2.78;1.30;;;19.50;50.70;;;;;;2625532;52;21087;-75
2022/06/16 10:18:25;;;;;;;;;;;19.60;51.60;;;;;;2377929;56;21031;-75
2022/06/16 10:20:53;;;;;;;2.30;0.93;;;19.70;51.50;;;;;;2373878;56;20109;-75
2022/06/16 10:23:24;;;;;;;4.87;1.12;;;19.70;50.70;;;;;;2374493;56;21098;-75
2022/06/16 10:25:56;;;;;;;1.55;0.98;;;19.70;50.70;;;;;;2374119;56;21585;-75
2022/06/16 10:28:28;;;;;;;1.90;1.02;;;19.80;50.70;;;;;;2374384;56;21103;-75
2022/06/16 10:30:57;;;;;;;1.62;0.90;;;19.80;50.70;;;;;;2374261;56;21161;-75
2022/06/16 10:33:27;;;;;;;3.97;1.00;;;19.90;50.90;;;;;;2372728;56;21039;-75
2022/06/16 10:35:57;;;;;;;2.35;0.90;;;20.00;50.30;;;;;;2373599;56;21097;-75
2022/06/16 10:38:32;;;;;;;3.47;1.10;;;20.20;50.70;;;;;;2373986;56;21130;-75
2022/06/16 10:41:03;;;;;;;4.95;1.73;;;20.20;50.50;;;;;;2373908;56;21039;-75
2022/06/16 10:43:35;;;;;;;4.90;1.00;;;20.30;50.20;;;;;;2374560;56;21095;-75
2022/06/16 10:46:11;;;;;;;1.37;0.90;;;20.30;49.90;;;;;;2373794;56;21089;-75
2022/06/16 10:48:44;;;;;;;2.17;0.90;;;20.30;50.40;;;;;;2374235;56;21126;-76
2022/06/16 10:51:14;;;;;;;1.70;0.95;;;20.40;50.40;;;;;;2373745;56;21051;-74
2022/06/16 10:53:44;;;;;;;5.65;1.15;;;20.50;49.80;;;;;;2373954;56;21114;-75
2022/06/16 10:56:18;;;;;;;2.72;1.00;;;20.50;49.40;;;;;;2373772;56;21055;-74
2022/06/16 10:58:57;;;;;;;4.37;1.05;;;20.60;49.70;;;;;;2627434;52;21062;-75
2022/06/16 11:01:30;;;;;;;1.50;1.27;;;20.70;49.50;;;;;;2627445;52;21039;-75
2022/06/16 11:04:06;;;;;;;1.52;1.00;;;20.70;49.90;;;;;;2626659;52;21102;-76
2022/06/16 11:06:38;;;;;;;2.55;0.93;;;20.70;48.70;;;;;;2373758;56;21062;-75
2022/06/16 11:09:07;;;;;;;4.20;1.42;;;20.70;48.00;;;;;;2373804;56;21043;-75
2022/06/16 11:11:45;;;;;;;2.03;0.85;;;20.80;48.40;;;;;;2373993;56;21110;-76
2022/06/16 11:14:17;;;;;;;2.10;1.00;;;20.90;49.00;;;;;;2627299;52;21110;-75
2022/06/16 11:16:50;;;;;;;3.60;0.88;;;21.10;49.00;;;;;;2626937;52;21051;-74
2022/06/16 11:19:26;;;;;;;2.95;1.00;;;21.20;48.80;;;;;;2627643;52;21055;-75
2022/06/16 11:21:54;;;;;;;2.90;1.30;;;21.20;47.80;;;;;;2373662;56;21047;-76
2022/06/16 11:24:26;;;;;;;2.45;1.10;;;21.20;47.70;;;;;;2627523;52;21125;-75
2022/06/16 11:27:03;;;;;;;2.00;0.85;;;21.30;47.20;;;;;;2373626;56;21569;-75
2022/06/16 11:29:33;;;;;;;3.90;1.40;;;21.40;46.60;;;;;;2627171;52;21091;-75
2022/06/16 11:32:11;;;;;;;3.33;1.20;;;21.50;47.70;;;;;;2373627;56;21031;-75
2022/06/16 11:34:41;;;;;;;2.90;1.20;;;21.50;46.40;;;;;;2627504;52;21058;-75
2022/06/16 11:37:37;;;;;;;3.30;1.12;;;21.60;46.00;;;;;;2373708;56;21597;-75
2022/06/16 11:40:16;;;;;;;2.92;1.40;;;21.70;46.80;;;;;;2374321;56;21105;-75
2022/06/16 11:42:57;;;;;;;3.62;1.17;;;22.00;46.10;;;;;;2374163;56;21542;-76
2022/06/16 11:45:33;;;;;;;1.85;0.93;;;22.20;45.30;;;;;;2373942;56;21047;-75
2022/06/16 11:48:13;;;;;;;5.28;1.25;;;22.40;44.90;;;;;;2374356;56;21031;-76
2022/06/16 11:50:51;;;;;;;2.78;0.90;;;22.40;44.10;;;;;;2625740;52;21426;-75
2022/06/16 11:53:33;;;;;;;2.67;1.25;;;22.50;45.00;;;;;;2627493;52;21083;-75
2022/06/16 11:56:07;;;;;;;2.70;1.15;;;22.70;44.50;;;;;;2373788;56;21525;-76
2022/06/16 11:59:03;;;;;;;4.57;1.35;;;22.90;45.20;;;;;;2627644;52;21043;-76
2022/06/16 12:01:38;;;;;;;3.65;1.20;;;23.10;44.40;;;;;;2627186;52;21054;-75
2022/06/16 12:04:35;;;;;;;3.20;1.40;;;23.20;43.70;;;;;;2627694;52;21340;-76
2022/06/16 12:07:27;;;;;;;6.37;1.35;;;23.30;43.00;;;;;;2372523;56;21608;-75
2022/06/16 12:10:00;;;;;;;4.00;1.10;;;23.50;42.80;;;;;;2624931;52;21134;-75
2022/06/16 12:12:33;;;;;;;2.30;1.12;;;23.50;42.50;;;;;;2373306;56;21059;-76
2022/06/16 12:15:13;;;;;;;1.67;1.10;;;23.60;42.00;;;;;;2625902;52;21118;-75
2022/06/16 12:17:49;;;;;;;2.58;0.93;;;23.60;41.80;;;;;;2373036;56;21106;-75
2022/06/16 12:20:24;;;;;;;2.65;1.10;;;23.50;41.40;;;;;;2371174;56;21047;-75
2022/06/16 12:22:59;;;;;;;4.20;1.20;;;23.50;41.30;;;;;;2372002;56;21541;-75
2022/06/16 12:25:35;;;;;;;2.80;0.90;;;23.40;41.30;;;;;;2372612;56;21035;-76
2022/06/16 12:28:10;;;;;;;1.77;1.02;;;23.50;41.00;;;;;;2625911;52;21098;-75
2022/06/16 12:30:42;;;;;;;2.87;1.05;;;23.50;39.70;;;;;;2373448;56;21094;-75
2022/06/16 12:33:17;;;;;;;2.65;0.90;;;23.50;39.80;;;;;;2625923;52;21023;-74
2022/06/16 12:35:49;;;;;;;2.30;0.88;;;23.60;40.30;;;;;;2373771;56;21673;-76
2022/06/16 12:38:24;;;;;;;2.35;0.90;;;23.90;40.40;;;;;;2626160;52;21586;-75
2022/06/16 12:40:55;;;;;;;4.45;1.08;;;24.00;40.50;;;;;;2374303;56;21139;-76
2022/06/16 12:43:29;;;;;;;4.05;1.30;;;24.20;39.50;;;;;;2373829;56;21058;-76
2022/06/16 12:46:04;;;;;;;3.17;1.20;;;24.10;40.00;;;;;;2372337;56;21098;-75
2022/06/16 12:48:39;;;;;;;1.92;1.10;;;24.10;39.10;;;;;;2626263;52;21047;-75
2022/06/16 12:51:10;;;;;;;2.28;1.00;;;23.90;39.80;;;;;;2626335;52;21121;-75
2022/06/16 12:53:43;;;;;;;3.42;1.05;;;23.80;40.20;;;;;;2626254;52;21098;-75
2022/06/16 12:56:12;;;;;;;;;;;23.70;40.80;;;;;;2376194;56;21102;-75
2022/06/16 12:58:49;;;;;;;3.67;1.10;;;23.70;41.20;;;;;;2626204;52;20081;-75
2022/06/16 13:01:17;;;;;;;5.35;1.30;;;23.50;41.40;;;;;;2373451;56;21098;-75
2022/06/16 13:03:54;;;;;;;3.08;1.08;;;23.40;42.00;;;;;;2373207;56;21117;-75
2022/06/16 13:06:22;;;;;;;2.40;0.88;;;23.40;42.80;;;;;;2372206;56;21182;-75
2022/06/16 13:08:56;;;;;;;2.33;0.95;;;23.60;43.00;;;;;;2373091;56;21043;-74
2022/06/16 13:11:29;;;;;;;3.25;0.93;;;23.70;42.60;;;;;;2373009;56;21713;-75
2022/06/16 13:14:02;;;;;;;2.90;0.90;;;23.70;42.30;;;;;;2373791;56;21700;-75
2022/06/16 13:16:34;;;;;;;2.12;0.80;;;23.70;41.90;;;;;;2373574;56;21110;-75
2022/06/16 13:19:08;;;;;;;2.87;1.17;;;23.70;41.40;;;;;;2373256;56;21114;-74
2022/06/16 13:21:40;;;;;;;3.65;1.23;;;23.70;41.30;;;;;;2372315;56;21039;-75
2022/06/16 13:24:21;;;;;;;2.90;1.10;;;23.80;40.70;;;;;;2373095;56;21541;-74
2022/06/16 13:29:42;;;;;;;2.22;1.10;;;23.90;40.50;;;;;;2372877;56;22097;-75
2022/06/16 13:32:34;;;;;;;2.05;1.02;;;24.10;42.00;;;;;;2374295;56;21165;-76
2022/06/16 13:35:25;;;;;;;4.35;1.20;;;24.30;41.20;;;;;;2374700;56;21148;-76
2022/06/16 13:38:23;;;;;;;3.00;0.70;;;24.50;40.30;;;;;;2628571;52;21099;-76
2022/06/16 13:41:35;;;;;;;1.77;1.05;;;24.40;39.80;;;;;;2625947;52;21549;-76
2022/06/16 13:44:18;;;;;;;2.78;1.20;;;24.30;40.00;;;;;;2628046;52;21087;-75
2022/06/16 13:47:19;;;;;;;1.73;0.88;;;24.20;40.00;;;;;;2374661;56;21205;-75
2022/06/16 13:50:00;;;;;;;1.08;0.82;;;24.20;40.90;;;;;;2375092;56;21058;-75